sensor_id;sensor_type;location;lat;lon;timestamp;P1;durP1;ratioP1;P2;durP2;ratioP2
6209;SDS011;3138;52.550;13.148;2023-09-18T00:00:29;9.10;;;8.20;;
6209;SDS011;3138;52.550;13.148;2023-09-18T00:02:57;15.17;;;8.40;;
6209;SDS011;3138;52.550;13.148;2023-09-18T00:05:27;10.00;;;7.43;;
6209;SDS011;3138;52.550;13.148;2023-09-18T00:07:54;10.33;;;8.23;;
6209;SDS011;3138;52.550;13.148;2023-09-18T00:10:21;9.03;;;7.50;;
6209;SDS011;3138;52.550;13.148;2023-09-18T00:12:48;14.03;;;8.23;;
6209;SDS011;3138;52.550;13.148;2023-09-18T00:15:15;15.93;;;8.30;;
6209;SDS011;3138;52.550;13.148;2023-09-18T00:17:43;12.20;;;8.60;;
6209;SDS011;3138;52.550;13.148;2023-09-18T00:20:10;8.77;;;7.70;;
6209;SDS011;3138;52.550;13.148;2023-09-18T00:22:38;8.17;;;7.37;;
6209;SDS011;3138;52.550;13.148;2023-09-18T00:25:05;8.10;;;7.40;;
6209;SDS011;3138;52.550;13.148;2023-09-18T00:27:32;9.93;;;8.23;;
6209;SDS011;3138;52.550;13.148;2023-09-18T00:30:01;9.07;;;7.63;;
6209;SDS011;3138;52.550;13.148;2023-09-18T00:32:28;10.23;;;7.43;;
6209;SDS011;3138;52.550;13.148;2023-09-18T00:34:56;23.70;;;8.23;;
6209;SDS011;3138;52.550;13.148;2023-09-18T00:37:23;15.60;;;7.93;;
6209;SDS011;3138;52.550;13.148;2023-09-18T00:39:50;9.33;;;8.20;;
6209;SDS011;3138;52.550;13.148;2023-09-18T00:42:16;13.53;;;7.40;;
6209;SDS011;3138;52.550;13.148;2023-09-18T00:44:43;8.83;;;7.90;;
6209;SDS011;3138;52.550;13.148;2023-09-18T00:47:10;9.87;;;8.57;;
6209;SDS011;3138;52.550;13.148;2023-09-18T00:49:38;13.70;;;8.90;;
6209;SDS011;3138;52.550;13.148;2023-09-18T00:52:11;12.53;;;9.00;;
6209;SDS011;3138;52.550;13.148;2023-09-18T00:54:38;13.93;;;8.77;;
6209;SDS011;3138;52.550;13.148;2023-09-18T00:57:08;11.13;;;7.90;;
6209;SDS011;3138;52.550;13.148;2023-09-18T00:59:35;10.97;;;8.97;;
6209;SDS011;3138;52.550;13.148;2023-09-18T01:02:03;9.40;;;8.43;;
6209;SDS011;3138;52.550;13.148;2023-09-18T01:04:30;9.80;;;8.80;;
6209;SDS011;3138;52.550;13.148;2023-09-18T01:06:58;15.23;;;7.80;;
6209;SDS011;3138;52.550;13.148;2023-09-18T01:09:29;10.63;;;8.17;;
6209;SDS011;3138;52.550;13.148;2023-09-18T01:12:00;9.77;;;8.33;;
6209;SDS011;3138;52.550;13.148;2023-09-18T01:14:33;9.63;;;8.47;;
6209;SDS011;3138;52.550;13.148;2023-09-18T01:17:03;11.50;;;9.10;;
6209;SDS011;3138;52.550;13.148;2023-09-18T01:19:39;11.80;;;8.33;;
6209;SDS011;3138;52.550;13.148;2023-09-18T01:22:07;10.43;;;9.10;;
6209;SDS011;3138;52.550;13.148;2023-09-18T01:24:37;13.77;;;9.47;;
6209;SDS011;3138;52.550;13.148;2023-09-18T01:27:07;29.07;;;9.47;;
6209;SDS011;3138;52.550;13.148;2023-09-18T01:29:35;18.03;;;8.90;;
6209;SDS011;3138;52.550;13.148;2023-09-18T01:32:03;10.00;;;8.53;;
6209;SDS011;3138;52.550;13.148;2023-09-18T01:34:31;10.50;;;8.57;;
6209;SDS011;3138;52.550;13.148;2023-09-18T01:37:01;10.00;;;8.90;;
6209;SDS011;3138;52.550;13.148;2023-09-18T01:39:31;23.13;;;9.53;;
6209;SDS011;3138;52.550;13.148;2023-09-18T01:42:00;10.10;;;9.03;;
6209;SDS011;3138;52.550;13.148;2023-09-18T01:44:29;12.43;;;8.60;;
6209;SDS011;3138;52.550;13.148;2023-09-18T01:46:56;10.53;;;9.53;;
6209;SDS011;3138;52.550;13.148;2023-09-18T01:49:28;14.87;;;10.17;;
6209;SDS011;3138;52.550;13.148;2023-09-18T01:51:55;11.50;;;9.43;;
6209;SDS011;3138;52.550;13.148;2023-09-18T01:54:23;18.50;;;8.57;;
6209;SDS011;3138;52.550;13.148;2023-09-18T01:56:49;11.23;;;8.77;;
6209;SDS011;3138;52.550;13.148;2023-09-18T01:59:18;13.10;;;9.10;;
6209;SDS011;3138;52.550;13.148;2023-09-18T02:01:45;11.30;;;9.53;;
6209;SDS011;3138;52.550;13.148;2023-09-18T02:04:12;16.30;;;8.73;;
6209;SDS011;3138;52.550;13.148;2023-09-18T02:06:39;10.40;;;9.07;;
6209;SDS011;3138;52.550;13.148;2023-09-18T02:09:06;11.83;;;9.13;;
6209;SDS011;3138;52.550;13.148;2023-09-18T02:11:33;19.00;;;9.80;;
6209;SDS011;3138;52.550;13.148;2023-09-18T02:14:02;9.00;;;8.17;;
6209;SDS011;3138;52.550;13.148;2023-09-18T02:16:31;11.10;;;9.40;;
6209;SDS011;3138;52.550;13.148;2023-09-18T02:18:58;12.90;;;9.17;;
6209;SDS011;3138;52.550;13.148;2023-09-18T02:21:25;16.77;;;9.10;;
6209;SDS011;3138;52.550;13.148;2023-09-18T02:23:52;10.23;;;9.07;;
6209;SDS011;3138;52.550;13.148;2023-09-18T02:26:20;10.80;;;9.70;;
6209;SDS011;3138;52.550;13.148;2023-09-18T02:28:48;19.67;;;9.27;;
6209;SDS011;3138;52.550;13.148;2023-09-18T02:31:15;13.83;;;9.50;;
6209;SDS011;3138;52.550;13.148;2023-09-18T02:33:44;12.50;;;8.93;;
6209;SDS011;3138;52.550;13.148;2023-09-18T02:36:11;21.13;;;9.27;;
6209;SDS011;3138;52.550;13.148;2023-09-18T02:38:38;28.03;;;9.57;;
6209;SDS011;3138;52.550;13.148;2023-09-18T02:41:05;19.50;;;9.50;;
6209;SDS011;3138;52.550;13.148;2023-09-18T02:43:33;25.47;;;10.30;;
6209;SDS011;3138;52.550;13.148;2023-09-18T02:46:00;17.47;;;10.77;;
6209;SDS011;3138;52.550;13.148;2023-09-18T02:48:27;21.53;;;9.50;;
6209;SDS011;3138;52.550;13.148;2023-09-18T02:50:55;12.93;;;10.03;;
6209;SDS011;3138;52.550;13.148;2023-09-18T02:53:22;11.00;;;9.00;;
6209;SDS011;3138;52.550;13.148;2023-09-18T02:55:50;15.90;;;9.33;;
6209;SDS011;3138;52.550;13.148;2023-09-18T02:58:18;9.83;;;8.50;;
6209;SDS011;3138;52.550;13.148;2023-09-18T03:00:45;12.80;;;9.00;;
6209;SDS011;3138;52.550;13.148;2023-09-18T03:03:13;10.03;;;8.83;;
6209;SDS011;3138;52.550;13.148;2023-09-18T03:05:41;11.00;;;8.73;;
6209;SDS011;3138;52.550;13.148;2023-09-18T03:08:10;9.90;;;8.90;;
6209;SDS011;3138;52.550;13.148;2023-09-18T03:10:38;15.40;;;8.97;;
6209;SDS011;3138;52.550;13.148;2023-09-18T03:13:06;10.30;;;8.13;;
6209;SDS011;3138;52.550;13.148;2023-09-18T03:15:34;19.83;;;9.00;;
6209;SDS011;3138;52.550;13.148;2023-09-18T03:18:02;10.50;;;9.40;;
6209;SDS011;3138;52.550;13.148;2023-09-18T03:20:30;19.33;;;9.30;;
6209;SDS011;3138;52.550;13.148;2023-09-18T03:22:58;12.27;;;8.47;;
6209;SDS011;3138;52.550;13.148;2023-09-18T03:25:27;12.23;;;9.70;;
6209;SDS011;3138;52.550;13.148;2023-09-18T03:27:55;9.90;;;8.90;;
6209;SDS011;3138;52.550;13.148;2023-09-18T03:30:23;10.37;;;9.27;;
6209;SDS011;3138;52.550;13.148;2023-09-18T03:32:51;11.20;;;9.57;;
6209;SDS011;3138;52.550;13.148;2023-09-18T03:35:18;10.40;;;9.10;;
6209;SDS011;3138;52.550;13.148;2023-09-18T03:37:46;20.53;;;9.53;;
6209;SDS011;3138;52.550;13.148;2023-09-18T03:40:13;10.20;;;9.20;;
6209;SDS011;3138;52.550;13.148;2023-09-18T03:42:41;10.33;;;9.23;;
6209;SDS011;3138;52.550;13.148;2023-09-18T03:45:08;11.50;;;8.50;;
6209;SDS011;3138;52.550;13.148;2023-09-18T03:47:36;12.87;;;8.93;;
6209;SDS011;3138;52.550;13.148;2023-09-18T03:50:05;14.00;;;9.23;;
6209;SDS011;3138;52.550;13.148;2023-09-18T03:52:33;12.77;;;9.30;;
6209;SDS011;3138;52.550;13.148;2023-09-18T03:55:00;11.83;;;9.53;;
6209;SDS011;3138;52.550;13.148;2023-09-18T03:57:27;10.23;;;8.77;;
6209;SDS011;3138;52.550;13.148;2023-09-18T03:59:55;8.33;;;7.43;;
6209;SDS011;3138;52.550;13.148;2023-09-18T04:02:24;11.60;;;10.27;;
6209;SDS011;3138;52.550;13.148;2023-09-18T04:04:51;10.03;;;9.03;;
6209;SDS011;3138;52.550;13.148;2023-09-18T04:07:19;12.90;;;8.40;;
6209;SDS011;3138;52.550;13.148;2023-09-18T04:09:49;9.63;;;8.73;;
6209;SDS011;3138;52.550;13.148;2023-09-18T04:12:15;12.17;;;9.50;;
6209;SDS011;3138;52.550;13.148;2023-09-18T04:14:42;12.20;;;8.33;;
6209;SDS011;3138;52.550;13.148;2023-09-18T04:17:10;14.10;;;8.80;;
6209;SDS011;3138;52.550;13.148;2023-09-18T04:19:37;10.37;;;9.27;;
6209;SDS011;3138;52.550;13.148;2023-09-18T04:22:04;9.23;;;8.33;;
6209;SDS011;3138;52.550;13.148;2023-09-18T04:24:31;10.57;;;9.40;;
6209;SDS011;3138;52.550;13.148;2023-09-18T04:26:58;10.30;;;9.30;;
6209;SDS011;3138;52.550;13.148;2023-09-18T04:29:24;11.33;;;10.10;;
6209;SDS011;3138;52.550;13.148;2023-09-18T04:31:51;15.17;;;10.60;;
6209;SDS011;3138;52.550;13.148;2023-09-18T04:34:20;13.73;;;9.60;;
6209;SDS011;3138;52.550;13.148;2023-09-18T04:36:47;11.23;;;8.57;;
6209;SDS011;3138;52.550;13.148;2023-09-18T04:39:14;17.57;;;9.57;;
6209;SDS011;3138;52.550;13.148;2023-09-18T04:41:41;11.33;;;10.13;;
6209;SDS011;3138;52.550;13.148;2023-09-18T04:44:08;10.73;;;9.70;;
6209;SDS011;3138;52.550;13.148;2023-09-18T04:46:37;13.07;;;9.47;;
6209;SDS011;3138;52.550;13.148;2023-09-18T04:49:07;11.10;;;10.00;;
6209;SDS011;3138;52.550;13.148;2023-09-18T04:51:37;9.90;;;9.00;;
6209;SDS011;3138;52.550;13.148;2023-09-18T04:54:04;16.70;;;9.27;;
6209;SDS011;3138;52.550;13.148;2023-09-18T04:56:31;12.07;;;9.63;;
6209;SDS011;3138;52.550;13.148;2023-09-18T04:58:58;12.17;;;9.77;;
6209;SDS011;3138;52.550;13.148;2023-09-18T05:01:25;17.67;;;9.33;;
6209;SDS011;3138;52.550;13.148;2023-09-18T05:03:52;10.63;;;9.23;;
6209;SDS011;3138;52.550;13.148;2023-09-18T05:06:19;10.30;;;8.93;;
6209;SDS011;3138;52.550;13.148;2023-09-18T05:08:48;13.77;;;10.10;;
6209;SDS011;3138;52.550;13.148;2023-09-18T05:11:14;10.40;;;9.50;;
6209;SDS011;3138;52.550;13.148;2023-09-18T05:13:43;10.10;;;9.13;;
6209;SDS011;3138;52.550;13.148;2023-09-18T05:16:11;12.37;;;9.80;;
6209;SDS011;3138;52.550;13.148;2023-09-18T05:18:37;10.77;;;9.30;;
6209;SDS011;3138;52.550;13.148;2023-09-18T05:21:04;11.83;;;9.30;;
6209;SDS011;3138;52.550;13.148;2023-09-18T05:23:31;10.43;;;9.43;;
6209;SDS011;3138;52.550;13.148;2023-09-18T05:25:59;14.23;;;9.70;;
6209;SDS011;3138;52.550;13.148;2023-09-18T05:28:25;11.43;;;10.20;;
6209;SDS011;3138;52.550;13.148;2023-09-18T05:30:52;10.37;;;9.00;;
6209;SDS011;3138;52.550;13.148;2023-09-18T05:33:20;10.27;;;9.30;;
6209;SDS011;3138;52.550;13.148;2023-09-18T05:35:47;43.33;;;10.03;;
6209;SDS011;3138;52.550;13.148;2023-09-18T05:38:14;12.10;;;8.63;;
6209;SDS011;3138;52.550;13.148;2023-09-18T05:40:42;10.17;;;9.20;;
6209;SDS011;3138;52.550;13.148;2023-09-18T05:43:11;16.50;;;8.37;;
6209;SDS011;3138;52.550;13.148;2023-09-18T05:45:38;13.70;;;8.80;;
6209;SDS011;3138;52.550;13.148;2023-09-18T05:48:05;9.90;;;8.90;;
6209;SDS011;3138;52.550;13.148;2023-09-18T05:50:32;12.13;;;9.27;;
6209;SDS011;3138;52.550;13.148;2023-09-18T05:53:01;21.20;;;8.40;;
6209;SDS011;3138;52.550;13.148;2023-09-18T05:55:30;12.47;;;9.13;;
6209;SDS011;3138;52.550;13.148;2023-09-18T05:57:58;10.73;;;8.47;;
6209;SDS011;3138;52.550;13.148;2023-09-18T06:00:26;11.53;;;8.37;;
6209;SDS011;3138;52.550;13.148;2023-09-18T06:02:55;14.97;;;8.70;;
6209;SDS011;3138;52.550;13.148;2023-09-18T06:05:23;13.47;;;9.10;;
6209;SDS011;3138;52.550;13.148;2023-09-18T06:07:50;10.13;;;8.17;;
6209;SDS011;3138;52.550;13.148;2023-09-18T06:10:18;12.77;;;8.80;;
6209;SDS011;3138;52.550;13.148;2023-09-18T06:12:45;13.73;;;8.87;;
6209;SDS011;3138;52.550;13.148;2023-09-18T06:15:11;10.43;;;7.87;;
6209;SDS011;3138;52.550;13.148;2023-09-18T06:17:41;9.83;;;7.73;;
6209;SDS011;3138;52.550;13.148;2023-09-18T06:20:10;14.90;;;9.90;;
6209;SDS011;3138;52.550;13.148;2023-09-18T06:22:38;13.27;;;8.73;;
6209;SDS011;3138;52.550;13.148;2023-09-18T06:25:05;13.40;;;8.67;;
6209;SDS011;3138;52.550;13.148;2023-09-18T06:27:35;9.50;;;8.03;;
6209;SDS011;3138;52.550;13.148;2023-09-18T06:30:03;11.80;;;9.30;;
6209;SDS011;3138;52.550;13.148;2023-09-18T06:32:30;12.63;;;8.87;;
6209;SDS011;3138;52.550;13.148;2023-09-18T06:34:58;17.37;;;8.73;;
6209;SDS011;3138;52.550;13.148;2023-09-18T06:37:25;9.80;;;8.60;;
6209;SDS011;3138;52.550;13.148;2023-09-18T06:39:52;10.30;;;8.70;;
6209;SDS011;3138;52.550;13.148;2023-09-18T06:42:19;12.70;;;9.60;;
6209;SDS011;3138;52.550;13.148;2023-09-18T06:44:46;12.27;;;8.67;;
6209;SDS011;3138;52.550;13.148;2023-09-18T06:47:13;9.30;;;7.80;;
6209;SDS011;3138;52.550;13.148;2023-09-18T06:49:40;10.70;;;8.57;;
6209;SDS011;3138;52.550;13.148;2023-09-18T06:52:09;8.43;;;7.63;;
6209;SDS011;3138;52.550;13.148;2023-09-18T06:54:36;11.03;;;9.30;;
6209;SDS011;3138;52.550;13.148;2023-09-18T06:57:03;9.53;;;8.30;;
6209;SDS011;3138;52.550;13.148;2023-09-18T06:59:30;9.90;;;7.57;;
6209;SDS011;3138;52.550;13.148;2023-09-18T07:01:59;15.50;;;8.50;;
6209;SDS011;3138;52.550;13.148;2023-09-18T07:04:26;11.90;;;8.93;;
6209;SDS011;3138;52.550;13.148;2023-09-18T07:06:53;11.10;;;8.47;;
6209;SDS011;3138;52.550;13.148;2023-09-18T07:09:23;13.00;;;7.77;;
6209;SDS011;3138;52.550;13.148;2023-09-18T07:11:51;9.07;;;7.00;;
6209;SDS011;3138;52.550;13.148;2023-09-18T07:14:17;8.30;;;7.13;;
6209;SDS011;3138;52.550;13.148;2023-09-18T07:16:44;14.37;;;7.50;;
6209;SDS011;3138;52.550;13.148;2023-09-18T07:19:11;12.90;;;8.00;;
6209;SDS011;3138;52.550;13.148;2023-09-18T07:21:41;13.67;;;7.17;;
6209;SDS011;3138;52.550;13.148;2023-09-18T07:24:09;49.00;;;8.37;;
6209;SDS011;3138;52.550;13.148;2023-09-18T07:26:42;10.40;;;6.67;;
6209;SDS011;3138;52.550;13.148;2023-09-18T07:29:10;9.57;;;7.93;;
6209;SDS011;3138;52.550;13.148;2023-09-18T07:31:38;12.37;;;7.87;;
6209;SDS011;3138;52.550;13.148;2023-09-18T07:34:05;8.10;;;6.17;;
6209;SDS011;3138;52.550;13.148;2023-09-18T07:36:32;11.53;;;7.10;;
6209;SDS011;3138;52.550;13.148;2023-09-18T07:38:59;7.60;;;6.80;;
6209;SDS011;3138;52.550;13.148;2023-09-18T07:41:25;7.70;;;6.70;;
6209;SDS011;3138;52.550;13.148;2023-09-18T07:43:54;8.50;;;6.90;;
6209;SDS011;3138;52.550;13.148;2023-09-18T07:46:22;10.67;;;7.50;;
6209;SDS011;3138;52.550;13.148;2023-09-18T07:48:49;9.63;;;6.83;;
6209;SDS011;3138;52.550;13.148;2023-09-18T07:51:16;14.67;;;7.10;;
6209;SDS011;3138;52.550;13.148;2023-09-18T07:53:43;12.47;;;6.70;;
6209;SDS011;3138;52.550;13.148;2023-09-18T07:56:10;14.50;;;6.07;;
6209;SDS011;3138;52.550;13.148;2023-09-18T07:58:37;6.73;;;6.07;;
6209;SDS011;3138;52.550;13.148;2023-09-18T08:01:05;11.43;;;6.23;;
6209;SDS011;3138;52.550;13.148;2023-09-18T08:03:34;16.23;;;7.63;;
6209;SDS011;3138;52.550;13.148;2023-09-18T08:06:01;15.60;;;6.00;;
6209;SDS011;3138;52.550;13.148;2023-09-18T08:08:29;11.57;;;5.60;;
6209;SDS011;3138;52.550;13.148;2023-09-18T08:10:58;17.73;;;6.33;;
6209;SDS011;3138;52.550;13.148;2023-09-18T08:13:26;7.50;;;5.60;;
6209;SDS011;3138;52.550;13.148;2023-09-18T08:15:54;8.13;;;5.87;;
6209;SDS011;3138;52.550;13.148;2023-09-18T08:18:22;10.83;;;6.00;;
6209;SDS011;3138;52.550;13.148;2023-09-18T08:20:51;9.33;;;5.73;;
6209;SDS011;3138;52.550;13.148;2023-09-18T08:23:18;16.10;;;5.20;;
6209;SDS011;3138;52.550;13.148;2023-09-18T08:25:45;12.53;;;6.00;;
6209;SDS011;3138;52.550;13.148;2023-09-18T08:28:13;7.00;;;5.93;;
6209;SDS011;3138;52.550;13.148;2023-09-18T08:30:41;8.67;;;6.63;;
6209;SDS011;3138;52.550;13.148;2023-09-18T08:33:12;13.57;;;5.43;;
6209;SDS011;3138;52.550;13.148;2023-09-18T08:35:40;6.60;;;6.00;;
6209;SDS011;3138;52.550;13.148;2023-09-18T08:38:07;6.50;;;5.87;;
6209;SDS011;3138;52.550;13.148;2023-09-18T08:40:34;8.47;;;5.80;;
6209;SDS011;3138;52.550;13.148;2023-09-18T08:43:01;6.67;;;5.80;;
6209;SDS011;3138;52.550;13.148;2023-09-18T08:45:31;6.50;;;5.57;;
6209;SDS011;3138;52.550;13.148;2023-09-18T08:48:04;11.83;;;6.00;;
6209;SDS011;3138;52.550;13.148;2023-09-18T08:50:32;7.63;;;5.60;;
6209;SDS011;3138;52.550;13.148;2023-09-18T08:53:01;6.53;;;5.70;;
6209;SDS011;3138;52.550;13.148;2023-09-18T08:55:31;14.60;;;5.60;;
6209;SDS011;3138;52.550;13.148;2023-09-18T08:58:00;15.70;;;6.37;;
6209;SDS011;3138;52.550;13.148;2023-09-18T09:00:33;8.07;;;5.40;;
6209;SDS011;3138;52.550;13.148;2023-09-18T09:03:00;6.23;;;5.13;;
6209;SDS011;3138;52.550;13.148;2023-09-18T09:05:27;6.57;;;5.80;;
6209;SDS011;3138;52.550;13.148;2023-09-18T09:07:54;10.13;;;5.63;;
6209;SDS011;3138;52.550;13.148;2023-09-18T09:10:25;7.47;;;5.77;;
6209;SDS011;3138;52.550;13.148;2023-09-18T09:12:55;6.07;;;5.60;;
6209;SDS011;3138;52.550;13.148;2023-09-18T09:15:26;9.77;;;5.80;;
6209;SDS011;3138;52.550;13.148;2023-09-18T09:18:02;7.47;;;5.73;;
6209;SDS011;3138;52.550;13.148;2023-09-18T09:20:30;6.23;;;5.63;;
6209;SDS011;3138;52.550;13.148;2023-09-18T09:22:59;11.00;;;5.60;;
6209;SDS011;3138;52.550;13.148;2023-09-18T09:25:29;7.53;;;5.60;;
6209;SDS011;3138;52.550;13.148;2023-09-18T09:27:58;9.23;;;5.83;;
6209;SDS011;3138;52.550;13.148;2023-09-18T09:30:26;8.53;;;5.60;;
6209;SDS011;3138;52.550;13.148;2023-09-18T09:32:55;7.60;;;5.23;;
6209;SDS011;3138;52.550;13.148;2023-09-18T09:35:23;6.80;;;5.10;;
6209;SDS011;3138;52.550;13.148;2023-09-18T09:37:52;5.77;;;5.17;;
6209;SDS011;3138;52.550;13.148;2023-09-18T09:40:21;6.27;;;5.10;;
6209;SDS011;3138;52.550;13.148;2023-09-18T09:42:52;5.53;;;5.03;;
6209;SDS011;3138;52.550;13.148;2023-09-18T09:45:25;10.77;;;5.90;;
6209;SDS011;3138;52.550;13.148;2023-09-18T09:47:54;15.20;;;4.20;;
6209;SDS011;3138;52.550;13.148;2023-09-18T09:50:21;7.83;;;4.53;;
6209;SDS011;3138;52.550;13.148;2023-09-18T09:52:51;5.63;;;5.13;;
6209;SDS011;3138;52.550;13.148;2023-09-18T09:55:23;10.97;;;4.93;;
6209;SDS011;3138;52.550;13.148;2023-09-18T09:57:54;5.90;;;5.40;;
6209;SDS011;3138;52.550;13.148;2023-09-18T10:00:25;5.20;;;4.80;;
6209;SDS011;3138;52.550;13.148;2023-09-18T10:02:57;5.70;;;5.20;;
6209;SDS011;3138;52.550;13.148;2023-09-18T10:05:26;11.47;;;6.13;;
6209;SDS011;3138;52.550;13.148;2023-09-18T10:07:57;13.97;;;5.07;;
6209;SDS011;3138;52.550;13.148;2023-09-18T10:10:26;6.83;;;6.13;;
6209;SDS011;3138;52.550;13.148;2023-09-18T10:12:59;5.83;;;5.40;;
6209;SDS011;3138;52.550;13.148;2023-09-18T10:15:29;9.10;;;5.83;;
6209;SDS011;3138;52.550;13.148;2023-09-18T10:18:04;8.50;;;4.67;;
6209;SDS011;3138;52.550;13.148;2023-09-18T10:20:42;7.30;;;5.17;;
6209;SDS011;3138;52.550;13.148;2023-09-18T10:23:15;6.10;;;4.67;;
6209;SDS011;3138;52.550;13.148;2023-09-18T10:25:50;18.00;;;5.40;;
6209;SDS011;3138;52.550;13.148;2023-09-18T10:28:23;5.40;;;4.57;;
6209;SDS011;3138;52.550;13.148;2023-09-18T10:30:53;10.40;;;5.17;;
6209;SDS011;3138;52.550;13.148;2023-09-18T10:33:23;7.53;;;5.47;;
6209;SDS011;3138;52.550;13.148;2023-09-18T10:35:51;11.63;;;5.10;;
6209;SDS011;3138;52.550;13.148;2023-09-18T10:38:19;13.20;;;6.00;;
6209;SDS011;3138;52.550;13.148;2023-09-18T10:40:47;12.43;;;5.10;;
6209;SDS011;3138;52.550;13.148;2023-09-18T10:43:15;5.30;;;4.90;;
6209;SDS011;3138;52.550;13.148;2023-09-18T10:45:44;8.63;;;5.87;;
6209;SDS011;3138;52.550;13.148;2023-09-18T10:48:12;6.93;;;4.90;;
6209;SDS011;3138;52.550;13.148;2023-09-18T10:50:41;4.77;;;4.37;;
6209;SDS011;3138;52.550;13.148;2023-09-18T10:53:10;5.53;;;5.10;;
6209;SDS011;3138;52.550;13.148;2023-09-18T10:55:38;6.30;;;5.13;;
6209;SDS011;3138;52.550;13.148;2023-09-18T10:58:04;5.77;;;5.37;;
6209;SDS011;3138;52.550;13.148;2023-09-18T11:00:32;9.47;;;5.27;;
6209;SDS011;3138;52.550;13.148;2023-09-18T11:03:15;13.63;;;5.77;;
6209;SDS011;3138;52.550;13.148;2023-09-18T11:05:44;11.40;;;5.20;;
6209;SDS011;3138;52.550;13.148;2023-09-18T11:08:24;7.27;;;5.43;;
6209;SDS011;3138;52.550;13.148;2023-09-18T11:10:58;5.80;;;5.40;;
6209;SDS011;3138;52.550;13.148;2023-09-18T11:13:30;6.00;;;5.50;;
6209;SDS011;3138;52.550;13.148;2023-09-18T11:16:01;10.97;;;5.97;;
6209;SDS011;3138;52.550;13.148;2023-09-18T11:18:33;5.93;;;5.00;;
6209;SDS011;3138;52.550;13.148;2023-09-18T11:21:07;24.77;;;5.40;;
6209;SDS011;3138;52.550;13.148;2023-09-18T11:23:35;15.60;;;5.50;;
6209;SDS011;3138;52.550;13.148;2023-09-18T11:26:07;13.33;;;6.07;;
6209;SDS011;3138;52.550;13.148;2023-09-18T11:28:34;9.60;;;5.57;;
6209;SDS011;3138;52.550;13.148;2023-09-18T11:31:02;14.27;;;6.10;;
6209;SDS011;3138;52.550;13.148;2023-09-18T11:33:30;7.33;;;5.00;;
6209;SDS011;3138;52.550;13.148;2023-09-18T11:36:06;10.00;;;5.30;;
6209;SDS011;3138;52.550;13.148;2023-09-18T11:38:52;9.90;;;5.50;;
6209;SDS011;3138;52.550;13.148;2023-09-18T11:41:21;12.40;;;5.60;;
6209;SDS011;3138;52.550;13.148;2023-09-18T11:43:50;8.30;;;5.50;;
6209;SDS011;3138;52.550;13.148;2023-09-18T11:46:18;10.60;;;5.80;;
6209;SDS011;3138;52.550;13.148;2023-09-18T11:48:48;6.33;;;5.70;;
6209;SDS011;3138;52.550;13.148;2023-09-18T11:51:22;7.33;;;5.60;;
6209;SDS011;3138;52.550;13.148;2023-09-18T11:53:49;5.20;;;4.70;;
6209;SDS011;3138;52.550;13.148;2023-09-18T11:56:20;5.80;;;5.03;;
6209;SDS011;3138;52.550;13.148;2023-09-18T11:58:47;5.70;;;4.43;;
6209;SDS011;3138;52.550;13.148;2023-09-18T12:01:15;5.77;;;4.90;;
6209;SDS011;3138;52.550;13.148;2023-09-18T12:03:42;5.70;;;5.20;;
6209;SDS011;3138;52.550;13.148;2023-09-18T12:06:11;4.30;;;3.90;;
6209;SDS011;3138;52.550;13.148;2023-09-18T12:08:39;5.20;;;4.73;;
6209;SDS011;3138;52.550;13.148;2023-09-18T12:11:07;7.83;;;4.80;;
6209;SDS011;3138;52.550;13.148;2023-09-18T12:13:34;10.00;;;4.23;;
6209;SDS011;3138;52.550;13.148;2023-09-18T12:16:01;9.07;;;4.23;;
6209;SDS011;3138;52.550;13.148;2023-09-18T12:18:30;10.63;;;4.30;;
6209;SDS011;3138;52.550;13.148;2023-09-18T12:20:59;5.93;;;4.70;;
6209;SDS011;3138;52.550;13.148;2023-09-18T12:23:38;6.70;;;4.30;;
6209;SDS011;3138;52.550;13.148;2023-09-18T12:26:05;12.13;;;4.50;;
6209;SDS011;3138;52.550;13.148;2023-09-18T12:28:33;8.83;;;5.00;;
6209;SDS011;3138;52.550;13.148;2023-09-18T12:31:01;7.37;;;4.57;;
6209;SDS011;3138;52.550;13.148;2023-09-18T12:33:30;8.27;;;4.13;;
6209;SDS011;3138;52.550;13.148;2023-09-18T12:36:00;5.23;;;4.20;;
6209;SDS011;3138;52.550;13.148;2023-09-18T12:38:28;8.43;;;4.23;;
6209;SDS011;3138;52.550;13.148;2023-09-18T12:40:57;7.40;;;5.00;;
6209;SDS011;3138;52.550;13.148;2023-09-18T12:43:31;6.27;;;4.83;;
6209;SDS011;3138;52.550;13.148;2023-09-18T12:46:00;10.33;;;4.80;;
6209;SDS011;3138;52.550;13.148;2023-09-18T12:48:28;6.53;;;4.93;;
6209;SDS011;3138;52.550;13.148;2023-09-18T12:50:55;6.40;;;4.97;;
6209;SDS011;3138;52.550;13.148;2023-09-18T12:53:29;6.70;;;4.83;;
6209;SDS011;3138;52.550;13.148;2023-09-18T12:56:05;9.30;;;4.10;;
6209;SDS011;3138;52.550;13.148;2023-09-18T12:58:32;5.33;;;4.70;;
6209;SDS011;3138;52.550;13.148;2023-09-18T13:01:03;6.50;;;4.10;;
6209;SDS011;3138;52.550;13.148;2023-09-18T13:03:33;16.13;;;5.23;;
6209;SDS011;3138;52.550;13.148;2023-09-18T13:06:06;9.33;;;5.27;;
6209;SDS011;3138;52.550;13.148;2023-09-18T13:08:34;10.80;;;4.40;;
6209;SDS011;3138;52.550;13.148;2023-09-18T13:11:01;9.17;;;4.57;;
6209;SDS011;3138;52.550;13.148;2023-09-18T13:13:30;10.13;;;5.37;;
6209;SDS011;3138;52.550;13.148;2023-09-18T13:15:58;10.40;;;4.37;;
6209;SDS011;3138;52.550;13.148;2023-09-18T13:18:25;5.60;;;5.10;;
6209;SDS011;3138;52.550;13.148;2023-09-18T13:20:53;12.50;;;4.90;;
6209;SDS011;3138;52.550;13.148;2023-09-18T13:23:20;17.40;;;5.07;;
6209;SDS011;3138;52.550;13.148;2023-09-18T13:25:58;10.00;;;4.80;;
6209;SDS011;3138;52.550;13.148;2023-09-18T13:28:26;14.10;;;5.27;;
6209;SDS011;3138;52.550;13.148;2023-09-18T13:30:57;22.83;;;5.60;;
6209;SDS011;3138;52.550;13.148;2023-09-18T13:33:24;9.10;;;4.47;;
6209;SDS011;3138;52.550;13.148;2023-09-18T13:35:53;12.90;;;5.07;;
6209;SDS011;3138;52.550;13.148;2023-09-18T13:38:21;9.83;;;5.10;;
6209;SDS011;3138;52.550;13.148;2023-09-18T13:40:48;5.40;;;4.57;;
6209;SDS011;3138;52.550;13.148;2023-09-18T13:43:15;8.23;;;5.10;;
6209;SDS011;3138;52.550;13.148;2023-09-18T13:45:43;10.93;;;5.23;;
6209;SDS011;3138;52.550;13.148;2023-09-18T13:48:12;14.97;;;5.63;;
6209;SDS011;3138;52.550;13.148;2023-09-18T13:50:40;9.07;;;5.43;;
6209;SDS011;3138;52.550;13.148;2023-09-18T13:53:07;7.13;;;4.80;;
6209;SDS011;3138;52.550;13.148;2023-09-18T13:55:34;11.93;;;5.37;;
6209;SDS011;3138;52.550;13.148;2023-09-18T13:58:01;25.43;;;5.50;;
6209;SDS011;3138;52.550;13.148;2023-09-18T14:00:29;6.00;;;4.67;;
6209;SDS011;3138;52.550;13.148;2023-09-18T14:02:56;11.43;;;5.40;;
6209;SDS011;3138;52.550;13.148;2023-09-18T14:05:24;8.57;;;4.77;;
6209;SDS011;3138;52.550;13.148;2023-09-18T14:07:52;11.23;;;4.37;;
6209;SDS011;3138;52.550;13.148;2023-09-18T14:10:22;8.70;;;5.00;;
6209;SDS011;3138;52.550;13.148;2023-09-18T14:12:49;26.23;;;4.13;;
6209;SDS011;3138;52.550;13.148;2023-09-18T14:15:16;7.27;;;3.93;;
6209;SDS011;3138;52.550;13.148;2023-09-18T14:17:44;9.63;;;5.03;;
6209;SDS011;3138;52.550;13.148;2023-09-18T14:20:10;9.50;;;4.40;;
6209;SDS011;3138;52.550;13.148;2023-09-18T14:22:39;16.10;;;4.47;;
6209;SDS011;3138;52.550;13.148;2023-09-18T14:25:06;9.43;;;4.53;;
6209;SDS011;3138;52.550;13.148;2023-09-18T14:27:33;7.63;;;4.13;;
6209;SDS011;3138;52.550;13.148;2023-09-18T14:30:01;11.33;;;4.23;;
6209;SDS011;3138;52.550;13.148;2023-09-18T14:32:31;5.53;;;3.37;;
6209;SDS011;3138;52.550;13.148;2023-09-18T14:34:58;7.10;;;3.30;;
6209;SDS011;3138;52.550;13.148;2023-09-18T14:37:26;8.33;;;3.80;;
6209;SDS011;3138;52.550;13.148;2023-09-18T14:39:55;13.50;;;3.40;;
6209;SDS011;3138;52.550;13.148;2023-09-18T14:42:22;43.10;;;23.30;;
6209;SDS011;3138;52.550;13.148;2023-09-18T14:44:49;14.13;;;5.63;;
6209;SDS011;3138;52.550;13.148;2023-09-18T14:47:16;8.27;;;4.77;;
6209;SDS011;3138;52.550;13.148;2023-09-18T14:49:42;12.40;;;4.33;;
6209;SDS011;3138;52.550;13.148;2023-09-18T14:52:11;10.40;;;3.27;;
6209;SDS011;3138;52.550;13.148;2023-09-18T14:54:38;5.90;;;3.30;;
6209;SDS011;3138;52.550;13.148;2023-09-18T14:57:08;19.40;;;4.33;;
6209;SDS011;3138;52.550;13.148;2023-09-18T14:59:35;16.60;;;4.03;;